sensor_id;sensor_type;location;lat;lon;timestamp;P1;durP1;ratioP1;P2;durP2;ratioP2
31966;SDS011;18496;52.042;6.812;2022-12-01T00:00:29;101.60;;;32.92;;
31966;SDS011;18496;52.042;6.812;2022-12-01T00:02:33;105.90;;;34.33;;
31966;SDS011;18496;52.042;6.812;2022-12-01T00:04:36;116.30;;;34.35;;
31966;SDS011;18496;52.042;6.812;2022-12-01T00:06:40;92.45;;;30.98;;
31966;SDS011;18496;52.042;6.812;2022-12-01T00:08:44;100.63;;;35.60;;
31966;SDS011;18496;52.042;6.812;2022-12-01T00:11:09;118.85;;;35.55;;
31966;SDS011;18496;52.042;6.812;2022-12-01T00:13:14;109.15;;;35.38;;
31966;SDS011;18496;52.042;6.812;2022-12-01T00:15:18;121.65;;;37.03;;
31966;SDS011;18496;52.042;6.812;2022-12-01T00:17:22;111.53;;;35.22;;
31966;SDS011;18496;52.042;6.812;2022-12-01T00:19:25;106.80;;;36.15;;
31966;SDS011;18496;52.042;6.812;2022-12-01T00:21:29;94.38;;;32.92;;
31966;SDS011;18496;52.042;6.812;2022-12-01T00:23:33;105.00;;;35.13;;
31966;SDS011;18496;52.042;6.812;2022-12-01T00:25:36;101.47;;;31.98;;
31966;SDS011;18496;52.042;6.812;2022-12-01T00:27:40;104.10;;;34.30;;
31966;SDS011;18496;52.042;6.812;2022-12-01T00:29:45;103.25;;;33.78;;
31966;SDS011;18496;52.042;6.812;2022-12-01T00:31:49;105.00;;;35.10;;
31966;SDS011;18496;52.042;6.812;2022-12-01T00:33:52;113.63;;;35.75;;
31966;SDS011;18496;52.042;6.812;2022-12-01T00:36:00;122.32;;;35.33;;
31966;SDS011;18496;52.042;6.812;2022-12-01T00:38:03;129.68;;;36.00;;
31966;SDS011;18496;52.042;6.812;2022-12-01T00:40:07;120.97;;;39.00;;
31966;SDS011;18496;52.042;6.812;2022-12-01T00:42:12;161.60;;;48.22;;
31966;SDS011;18496;52.042;6.812;2022-12-01T00:44:16;130.68;;;38.97;;
31966;SDS011;18496;52.042;6.812;2022-12-01T00:46:19;141.68;;;42.70;;
31966;SDS011;18496;52.042;6.812;2022-12-01T00:48:23;119.25;;;39.20;;
31966;SDS011;18496;52.042;6.812;2022-12-01T00:50:27;141.48;;;39.08;;
31966;SDS011;18496;52.042;6.812;2022-12-01T00:52:30;121.68;;;36.95;;
31966;SDS011;18496;52.042;6.812;2022-12-01T00:54:34;124.95;;;38.30;;
31966;SDS011;18496;52.042;6.812;2022-12-01T00:56:37;133.68;;;38.08;;
31966;SDS011;18496;52.042;6.812;2022-12-01T00:58:41;119.13;;;36.70;;
31966;SDS011;18496;52.042;6.812;2022-12-01T01:00:45;121.53;;;36.92;;
31966;SDS011;18496;52.042;6.812;2022-12-01T01:02:48;122.93;;;36.80;;
31966;SDS011;18496;52.042;6.812;2022-12-01T01:04:52;110.22;;;34.38;;
31966;SDS011;18496;52.042;6.812;2022-12-01T01:06:55;107.18;;;33.80;;
31966;SDS011;18496;52.042;6.812;2022-12-01T01:08:59;99.68;;;32.92;;
31966;SDS011;18496;52.042;6.812;2022-12-01T01:11:03;93.90;;;31.13;;
31966;SDS011;18496;52.042;6.812;2022-12-01T01:13:08;100.03;;;33.78;;
31966;SDS011;18496;52.042;6.812;2022-12-01T01:15:12;94.32;;;31.80;;
31966;SDS011;18496;52.042;6.812;2022-12-01T01:17:16;106.63;;;32.47;;
31966;SDS011;18496;52.042;6.812;2022-12-01T01:19:19;118.90;;;31.23;;
31966;SDS011;18496;52.042;6.812;2022-12-01T01:21:24;92.57;;;29.73;;
31966;SDS011;18496;52.042;6.812;2022-12-01T01:23:28;103.43;;;31.35;;
31966;SDS011;18496;52.042;6.812;2022-12-01T01:25:32;110.03;;;31.92;;
31966;SDS011;18496;52.042;6.812;2022-12-01T01:27:35;102.45;;;30.83;;
31966;SDS011;18496;52.042;6.812;2022-12-01T01:29:39;92.55;;;31.38;;
31966;SDS011;18496;52.042;6.812;2022-12-01T01:31:44;99.00;;;30.52;;
31966;SDS011;18496;52.042;6.812;2022-12-01T01:33:48;89.00;;;28.58;;
31966;SDS011;18496;52.042;6.812;2022-12-01T01:35:52;101.95;;;30.20;;
31966;SDS011;18496;52.042;6.812;2022-12-01T01:37:55;88.00;;;28.40;;
31966;SDS011;18496;52.042;6.812;2022-12-01T01:39:59;91.53;;;27.40;;
31966;SDS011;18496;52.042;6.812;2022-12-01T01:42:03;91.07;;;28.88;;
31966;SDS011;18496;52.042;6.812;2022-12-01T01:46:47;86.10;;;25.70;;
31966;SDS011;18496;52.042;6.812;2022-12-01T01:48:55;101.13;;;27.90;;
31966;SDS011;18496;52.042;6.812;2022-12-01T01:51:05;89.90;;;27.95;;
31966;SDS011;18496;52.042;6.812;2022-12-01T01:53:11;95.40;;;28.00;;
31966;SDS011;18496;52.042;6.812;2022-12-01T01:55:17;97.38;;;27.45;;
31966;SDS011;18496;52.042;6.812;2022-12-01T01:57:25;92.93;;;26.67;;
31966;SDS011;18496;52.042;6.812;2022-12-01T01:59:32;87.78;;;25.77;;
31966;SDS011;18496;52.042;6.812;2022-12-01T02:01:40;88.28;;;26.13;;
31966;SDS011;18496;52.042;6.812;2022-12-01T02:03:44;80.00;;;26.95;;
31966;SDS011;18496;52.042;6.812;2022-12-01T02:05:49;85.13;;;27.08;;
31966;SDS011;18496;52.042;6.812;2022-12-01T02:07:54;89.82;;;27.10;;
31966;SDS011;18496;52.042;6.812;2022-12-01T02:09:59;100.35;;;26.98;;
31966;SDS011;18496;52.042;6.812;2022-12-01T02:26:52;77.13;;;24.50;;
31966;SDS011;18496;52.042;6.812;2022-12-01T02:31:39;83.97;;;26.73;;
31966;SDS011;18496;52.042;6.812;2022-12-01T02:33:52;80.78;;;25.23;;
31966;SDS011;18496;52.042;6.812;2022-12-01T02:36:20;84.32;;;25.98;;
31966;SDS011;18496;52.042;6.812;2022-12-01T02:40:58;92.75;;;34.35;;
31966;SDS011;18496;52.042;6.812;2022-12-01T02:43:12;97.93;;;41.30;;
31966;SDS011;18496;52.042;6.812;2022-12-01T02:45:31;79.28;;;29.98;;
31966;SDS011;18496;52.042;6.812;2022-12-01T02:47:59;70.87;;;23.50;;
31966;SDS011;18496;52.042;6.812;2022-12-01T02:50:05;85.00;;;26.90;;
31966;SDS011;18496;52.042;6.812;2022-12-01T02:52:12;75.93;;;25.42;;
31966;SDS011;18496;52.042;6.812;2022-12-01T02:54:17;97.20;;;29.38;;
31966;SDS011;18496;52.042;6.812;2022-12-01T02:56:22;80.07;;;26.70;;
31966;SDS011;18496;52.042;6.812;2022-12-01T02:58:26;83.70;;;25.58;;
31966;SDS011;18496;52.042;6.812;2022-12-01T03:00:29;71.65;;;24.77;;
31966;SDS011;18496;52.042;6.812;2022-12-01T03:05:03;75.82;;;25.67;;
31966;SDS011;18496;52.042;6.812;2022-12-01T03:12:08;80.90;;;25.02;;
31966;SDS011;18496;52.042;6.812;2022-12-01T03:16:38;70.57;;;25.33;;
31966;SDS011;18496;52.042;6.812;2022-12-01T03:18:55;71.80;;;24.42;;
31966;SDS011;18496;52.042;6.812;2022-12-01T03:21:07;69.38;;;25.05;;
31966;SDS011;18496;52.042;6.812;2022-12-01T03:23:29;68.78;;;25.10;;
31966;SDS011;18496;52.042;6.812;2022-12-01T03:25:36;77.47;;;24.65;;
31966;SDS011;18496;52.042;6.812;2022-12-01T03:27:44;66.13;;;23.60;;
31966;SDS011;18496;52.042;6.812;2022-12-01T03:29:50;74.95;;;24.20;;
31966;SDS011;18496;52.042;6.812;2022-12-01T03:32:02;72.22;;;24.73;;
31966;SDS011;18496;52.042;6.812;2022-12-01T03:34:13;72.18;;;25.70;;
31966;SDS011;18496;52.042;6.812;2022-12-01T03:36:32;88.95;;;29.08;;
31966;SDS011;18496;52.042;6.812;2022-12-01T03:38:41;87.90;;;29.55;;
31966;SDS011;18496;52.042;6.812;2022-12-01T03:40:51;101.05;;;31.08;;
31966;SDS011;18496;52.042;6.812;2022-12-01T03:43:00;95.15;;;30.33;;
31966;SDS011;18496;52.042;6.812;2022-12-01T03:45:16;97.05;;;29.88;;
31966;SDS011;18496;52.042;6.812;2022-12-01T03:47:34;91.85;;;29.15;;
31966;SDS011;18496;52.042;6.812;2022-12-01T03:49:39;91.75;;;28.40;;
31966;SDS011;18496;52.042;6.812;2022-12-01T03:54:09;99.70;;;32.25;;
31966;SDS011;18496;52.042;6.812;2022-12-01T03:56:20;102.68;;;30.35;;
31966;SDS011;18496;52.042;6.812;2022-12-01T03:58:30;93.13;;;30.02;;
31966;SDS011;18496;52.042;6.812;2022-12-01T04:00:39;101.32;;;31.92;;
31966;SDS011;18496;52.042;6.812;2022-12-01T04:02:43;97.82;;;32.33;;
31966;SDS011;18496;52.042;6.812;2022-12-01T04:04:47;107.97;;;32.10;;
31966;SDS011;18496;52.042;6.812;2022-12-01T04:06:51;100.25;;;33.47;;
31966;SDS011;18496;52.042;6.812;2022-12-01T04:08:55;96.35;;;31.27;;
31966;SDS011;18496;52.042;6.812;2022-12-01T04:10:58;86.78;;;30.52;;
31966;SDS011;18496;52.042;6.812;2022-12-01T04:13:02;84.13;;;29.80;;
31966;SDS011;18496;52.042;6.812;2022-12-01T04:15:07;92.03;;;31.60;;
31966;SDS011;18496;52.042;6.812;2022-12-01T04:17:14;81.97;;;30.30;;
31966;SDS011;18496;52.042;6.812;2022-12-01T04:19:18;89.05;;;29.77;;
31966;SDS011;18496;52.042;6.812;2022-12-01T04:21:21;78.35;;;29.15;;
31966;SDS011;18496;52.042;6.812;2022-12-01T04:23:25;80.95;;;29.85;;
31966;SDS011;18496;52.042;6.812;2022-12-01T04:25:47;91.78;;;30.20;;
31966;SDS011;18496;52.042;6.812;2022-12-01T04:27:50;73.38;;;29.08;;
31966;SDS011;18496;52.042;6.812;2022-12-01T04:29:54;78.30;;;28.60;;
31966;SDS011;18496;52.042;6.812;2022-12-01T04:31:58;73.70;;;27.45;;
31966;SDS011;18496;52.042;6.812;2022-12-01T04:34:01;71.80;;;27.13;;
31966;SDS011;18496;52.042;6.812;2022-12-01T04:36:06;69.82;;;26.98;;
31966;SDS011;18496;52.042;6.812;2022-12-01T04:38:10;67.50;;;26.75;;
31966;SDS011;18496;52.042;6.812;2022-12-01T04:40:13;61.67;;;27.27;;
31966;SDS011;18496;52.042;6.812;2022-12-01T04:42:17;69.97;;;27.33;;
31966;SDS011;18496;52.042;6.812;2022-12-01T04:44:21;61.90;;;26.30;;
31966;SDS011;18496;52.042;6.812;2022-12-01T04:46:24;61.03;;;26.48;;
31966;SDS011;18496;52.042;6.812;2022-12-01T04:48:28;65.35;;;25.63;;
31966;SDS011;18496;52.042;6.812;2022-12-01T04:50:32;63.53;;;25.75;;
31966;SDS011;18496;52.042;6.812;2022-12-01T04:52:35;64.10;;;29.85;;
31966;SDS011;18496;52.042;6.812;2022-12-01T04:54:39;66.65;;;29.38;;
31966;SDS011;18496;52.042;6.812;2022-12-01T04:56:43;64.70;;;26.08;;
31966;SDS011;18496;52.042;6.812;2022-12-01T04:58:47;66.05;;;27.15;;
31966;SDS011;18496;52.042;6.812;2022-12-01T05:00:51;63.50;;;27.02;;
31966;SDS011;18496;52.042;6.812;2022-12-01T05:02:54;53.45;;;25.00;;
31966;SDS011;18496;52.042;6.812;2022-12-01T05:04:58;60.40;;;26.20;;
31966;SDS011;18496;52.042;6.812;2022-12-01T05:07:02;74.28;;;28.13;;
31966;SDS011;18496;52.042;6.812;2022-12-01T05:09:05;65.57;;;28.08;;
31966;SDS011;18496;52.042;6.812;2022-12-01T05:11:09;60.15;;;27.52;;
31966;SDS011;18496;52.042;6.812;2022-12-01T05:13:14;65.15;;;26.05;;
31966;SDS011;18496;52.042;6.812;2022-12-01T05:15:17;61.08;;;26.25;;
31966;SDS011;18496;52.042;6.812;2022-12-01T05:17:21;65.90;;;26.65;;
31966;SDS011;18496;52.042;6.812;2022-12-01T05:19:25;71.78;;;26.92;;
31966;SDS011;18496;52.042;6.812;2022-12-01T05:21:47;69.80;;;28.58;;
31966;SDS011;18496;52.042;6.812;2022-12-01T05:23:52;65.65;;;25.73;;
31966;SDS011;18496;52.042;6.812;2022-12-01T05:25:56;75.60;;;28.55;;
31966;SDS011;18496;52.042;6.812;2022-12-01T05:27:59;69.55;;;27.42;;
31966;SDS011;18496;52.042;6.812;2022-12-01T05:30:03;64.15;;;27.40;;
31966;SDS011;18496;52.042;6.812;2022-12-01T05:32:09;77.07;;;30.17;;
31966;SDS011;18496;52.042;6.812;2022-12-01T05:34:12;60.45;;;26.83;;
31966;SDS011;18496;52.042;6.812;2022-12-01T05:36:16;64.78;;;28.10;;
31966;SDS011;18496;52.042;6.812;2022-12-01T05:38:20;70.63;;;27.90;;
31966;SDS011;18496;52.042;6.812;2022-12-01T05:40:23;68.70;;;27.27;;
31966;SDS011;18496;52.042;6.812;2022-12-01T05:42:27;70.60;;;27.88;;
31966;SDS011;18496;52.042;6.812;2022-12-01T05:44:31;71.75;;;28.88;;
31966;SDS011;18496;52.042;6.812;2022-12-01T05:46:34;76.30;;;28.80;;
31966;SDS011;18496;52.042;6.812;2022-12-01T05:48:38;70.78;;;30.75;;
31966;SDS011;18496;52.042;6.812;2022-12-01T05:50:41;72.63;;;28.73;;
31966;SDS011;18496;52.042;6.812;2022-12-01T05:52:49;75.13;;;28.05;;
31966;SDS011;18496;52.042;6.812;2022-12-01T05:54:53;70.18;;;29.75;;
31966;SDS011;18496;52.042;6.812;2022-12-01T05:56:56;68.45;;;30.48;;
31966;SDS011;18496;52.042;6.812;2022-12-01T05:59:00;72.93;;;29.30;;
31966;SDS011;18496;52.042;6.812;2022-12-01T06:01:04;71.20;;;30.23;;
31966;SDS011;18496;52.042;6.812;2022-12-01T06:03:08;72.28;;;30.20;;
31966;SDS011;18496;52.042;6.812;2022-12-01T06:05:11;78.88;;;32.35;;
31966;SDS011;18496;52.042;6.812;2022-12-01T06:07:15;72.78;;;31.27;;
31966;SDS011;18496;52.042;6.812;2022-12-01T06:09:19;82.03;;;32.85;;
31966;SDS011;18496;52.042;6.812;2022-12-01T06:11:22;227.65;;;68.13;;
31966;SDS011;18496;52.042;6.812;2022-12-01T06:13:26;112.88;;;42.90;;
31966;SDS011;18496;52.042;6.812;2022-12-01T06:15:29;82.50;;;33.10;;
31966;SDS011;18496;52.042;6.812;2022-12-01T06:17:33;76.45;;;32.22;;
31966;SDS011;18496;52.042;6.812;2022-12-01T06:19:37;77.30;;;31.23;;
31966;SDS011;18496;52.042;6.812;2022-12-01T06:21:41;77.78;;;30.85;;
31966;SDS011;18496;52.042;6.812;2022-12-01T06:23:45;78.10;;;33.63;;
31966;SDS011;18496;52.042;6.812;2022-12-01T06:25:48;84.72;;;32.38;;
31966;SDS011;18496;52.042;6.812;2022-12-01T06:27:56;87.43;;;32.90;;
31966;SDS011;18496;52.042;6.812;2022-12-01T06:30:01;76.07;;;30.45;;
31966;SDS011;18496;52.042;6.812;2022-12-01T06:32:05;78.07;;;31.15;;
31966;SDS011;18496;52.042;6.812;2022-12-01T06:34:09;85.00;;;30.15;;
31966;SDS011;18496;52.042;6.812;2022-12-01T06:36:13;73.65;;;31.35;;
31966;SDS011;18496;52.042;6.812;2022-12-01T06:38:16;69.80;;;27.38;;
31966;SDS011;18496;52.042;6.812;2022-12-01T06:40:20;70.18;;;28.27;;
31966;SDS011;18496;52.042;6.812;2022-12-01T06:42:24;72.72;;;30.42;;
31966;SDS011;18496;52.042;6.812;2022-12-01T06:44:31;78.68;;;31.67;;
31966;SDS011;18496;52.042;6.812;2022-12-01T06:46:35;85.07;;;32.97;;
31966;SDS011;18496;52.042;6.812;2022-12-01T06:48:39;79.10;;;31.63;;
31966;SDS011;18496;52.042;6.812;2022-12-01T06:50:43;74.03;;;31.17;;
31966;SDS011;18496;52.042;6.812;2022-12-01T06:52:46;76.60;;;30.25;;
31966;SDS011;18496;52.042;6.812;2022-12-01T06:54:50;73.07;;;30.73;;
31966;SDS011;18496;52.042;6.812;2022-12-01T06:56:53;77.55;;;30.98;;
31966;SDS011;18496;52.042;6.812;2022-12-01T06:58:57;83.47;;;29.75;;
31966;SDS011;18496;52.042;6.812;2022-12-01T07:01:06;74.80;;;28.38;;
31966;SDS011;18496;52.042;6.812;2022-12-01T07:03:11;71.13;;;30.17;;
31966;SDS011;18496;52.042;6.812;2022-12-01T07:05:15;78.32;;;30.75;;
31966;SDS011;18496;52.042;6.812;2022-12-01T07:07:19;73.88;;;30.58;;
31966;SDS011;18496;52.042;6.812;2022-12-01T07:09:22;77.35;;;29.23;;
31966;SDS011;18496;52.042;6.812;2022-12-01T07:11:26;82.43;;;32.65;;
31966;SDS011;18496;52.042;6.812;2022-12-01T07:13:30;74.80;;;30.67;;
31966;SDS011;18496;52.042;6.812;2022-12-01T07:15:34;80.82;;;31.27;;
31966;SDS011;18496;52.042;6.812;2022-12-01T07:17:37;69.80;;;29.88;;
31966;SDS011;18496;52.042;6.812;2022-12-01T07:19:41;73.95;;;31.85;;
31966;SDS011;18496;52.042;6.812;2022-12-01T07:21:45;78.88;;;31.40;;
31966;SDS011;18496;52.042;6.812;2022-12-01T07:23:48;71.50;;;29.13;;
31966;SDS011;18496;52.042;6.812;2022-12-01T07:26:06;74.22;;;29.80;;
31966;SDS011;18496;52.042;6.812;2022-12-01T07:28:14;71.68;;;30.17;;
31966;SDS011;18496;52.042;6.812;2022-12-01T07:30:17;75.97;;;29.85;;
31966;SDS011;18496;52.042;6.812;2022-12-01T07:32:21;68.30;;;28.80;;
31966;SDS011;18496;52.042;6.812;2022-12-01T07:34:25;76.20;;;29.50;;
31966;SDS011;18496;52.042;6.812;2022-12-01T07:36:28;79.07;;;30.42;;
31966;SDS011;18496;52.042;6.812;2022-12-01T07:38:32;81.57;;;29.48;;
31966;SDS011;18496;52.042;6.812;2022-12-01T07:40:37;78.63;;;29.92;;
31966;SDS011;18496;52.042;6.812;2022-12-01T07:42:40;74.10;;;29.67;;
31966;SDS011;18496;52.042;6.812;2022-12-01T07:44:44;64.68;;;28.05;;
31966;SDS011;18496;52.042;6.812;2022-12-01T07:46:47;81.63;;;31.10;;
31966;SDS011;18496;52.042;6.812;2022-12-01T07:48:52;70.00;;;28.42;;
31966;SDS011;18496;52.042;6.812;2022-12-01T07:50:57;73.57;;;28.77;;
31966;SDS011;18496;52.042;6.812;2022-12-01T07:53:00;83.40;;;29.73;;
31966;SDS011;18496;52.042;6.812;2022-12-01T07:55:04;82.32;;;29.80;;
31966;SDS011;18496;52.042;6.812;2022-12-01T07:57:08;69.43;;;28.08;;
31966;SDS011;18496;52.042;6.812;2022-12-01T07:59:12;74.80;;;30.80;;
31966;SDS011;18496;52.042;6.812;2022-12-01T08:01:20;74.32;;;28.60;;
31966;SDS011;18496;52.042;6.812;2022-12-01T08:03:24;74.70;;;30.15;;
31966;SDS011;18496;52.042;6.812;2022-12-01T08:05:28;68.10;;;28.08;;
31966;SDS011;18496;52.042;6.812;2022-12-01T08:07:32;76.70;;;28.52;;
31966;SDS011;18496;52.042;6.812;2022-12-01T08:09:35;68.97;;;29.00;;
31966;SDS011;18496;52.042;6.812;2022-12-01T08:11:39;75.97;;;30.13;;
31966;SDS011;18496;52.042;6.812;2022-12-01T08:13:43;82.93;;;29.17;;
31966;SDS011;18496;52.042;6.812;2022-12-01T08:15:47;73.10;;;29.52;;
31966;SDS011;18496;52.042;6.812;2022-12-01T08:17:51;71.80;;;29.50;;
31966;SDS011;18496;52.042;6.812;2022-12-01T08:19:54;73.25;;;30.30;;
31966;SDS011;18496;52.042;6.812;2022-12-01T08:21:58;69.68;;;26.92;;
31966;SDS011;18496;52.042;6.812;2022-12-01T08:24:02;71.72;;;27.85;;
31966;SDS011;18496;52.042;6.812;2022-12-01T08:26:08;77.75;;;30.60;;
31966;SDS011;18496;52.042;6.812;2022-12-01T08:28:15;66.45;;;29.05;;
31966;SDS011;18496;52.042;6.812;2022-12-01T08:30:18;64.00;;;27.63;;
31966;SDS011;18496;52.042;6.812;2022-12-01T08:32:22;70.07;;;28.00;;
31966;SDS011;18496;52.042;6.812;2022-12-01T08:34:26;76.10;;;30.45;;
31966;SDS011;18496;52.042;6.812;2022-12-01T08:36:30;74.70;;;30.15;;
31966;SDS011;18496;52.042;6.812;2022-12-01T08:38:34;67.65;;;26.85;;
31966;SDS011;18496;52.042;6.812;2022-12-01T08:40:37;71.60;;;28.85;;
31966;SDS011;18496;52.042;6.812;2022-12-01T08:42:41;65.88;;;27.08;;
31966;SDS011;18496;52.042;6.812;2022-12-01T08:44:45;68.15;;;28.38;;
31966;SDS011;18496;52.042;6.812;2022-12-01T08:46:48;68.57;;;26.35;;
31966;SDS011;18496;52.042;6.812;2022-12-01T08:48:52;69.50;;;26.70;;
31966;SDS011;18496;52.042;6.812;2022-12-01T08:51:01;61.92;;;27.52;;
31966;SDS011;18496;52.042;6.812;2022-12-01T08:53:09;63.95;;;26.70;;
31966;SDS011;18496;52.042;6.812;2022-12-01T08:55:13;64.55;;;26.88;;
31966;SDS011;18496;52.042;6.812;2022-12-01T08:57:16;81.07;;;28.85;;
31966;SDS011;18496;52.042;6.812;2022-12-01T08:59:20;67.15;;;28.00;;
31966;SDS011;18496;52.042;6.812;2022-12-01T09:01:24;65.82;;;26.98;;
31966;SDS011;18496;52.042;6.812;2022-12-01T09:03:28;73.68;;;30.23;;
31966;SDS011;18496;52.042;6.812;2022-12-01T09:05:33;64.40;;;27.50;;
31966;SDS011;18496;52.042;6.812;2022-12-01T09:07:36;66.20;;;28.45;;
31966;SDS011;18496;52.042;6.812;2022-12-01T09:09:40;61.75;;;26.48;;
31966;SDS011;18496;52.042;6.812;2022-12-01T09:11:44;57.67;;;25.52;;
31966;SDS011;18496;52.042;6.812;2022-12-01T09:13:49;63.08;;;26.90;;
31966;SDS011;18496;52.042;6.812;2022-12-01T09:15:53;78.90;;;30.42;;
31966;SDS011;18496;52.042;6.812;2022-12-01T09:18:01;69.57;;;29.85;;
31966;SDS011;18496;52.042;6.812;2022-12-01T09:20:05;69.65;;;29.90;;
31966;SDS011;18496;52.042;6.812;2022-12-01T09:22:10;76.97;;;29.48;;
31966;SDS011;18496;52.042;6.812;2022-12-01T09:24:14;62.70;;;26.60;;
31966;SDS011;18496;52.042;6.812;2022-12-01T09:26:18;65.18;;;26.60;;
31966;SDS011;18496;52.042;6.812;2022-12-01T09:28:22;68.30;;;26.02;;
31966;SDS011;18496;52.042;6.812;2022-12-01T09:30:26;64.78;;;26.17;;
31966;SDS011;18496;52.042;6.812;2022-12-01T09:32:29;64.55;;;25.13;;
31966;SDS011;18496;52.042;6.812;2022-12-01T09:34:33;64.07;;;24.70;;
31966;SDS011;18496;52.042;6.812;2022-12-01T09:36:37;64.93;;;25.63;;
31966;SDS011;18496;52.042;6.812;2022-12-01T09:38:41;57.83;;;24.70;;
31966;SDS011;18496;52.042;6.812;2022-12-01T09:40:44;61.88;;;25.67;;
31966;SDS011;18496;52.042;6.812;2022-12-01T09:42:48;68.72;;;26.38;;
31966;SDS011;18496;52.042;6.812;2022-12-01T09:44:53;62.67;;;26.10;;
31966;SDS011;18496;52.042;6.812;2022-12-01T09:51:19;69.20;;;25.90;;
31966;SDS011;18496;52.042;6.812;2022-12-01T09:53:25;61.40;;;25.30;;
31966;SDS011;18496;52.042;6.812;2022-12-01T09:55:31;61.25;;;25.45;;
31966;SDS011;18496;52.042;6.812;2022-12-01T09:57:36;57.97;;;25.23;;
31966;SDS011;18496;52.042;6.812;2022-12-01T09:59:42;63.25;;;25.58;;
31966;SDS011;18496;52.042;6.812;2022-12-01T10:01:47;67.15;;;25.83;;
31966;SDS011;18496;52.042;6.812;2022-12-01T10:04:36;62.53;;;26.45;;
31966;SDS011;18496;52.042;6.812;2022-12-01T10:06:48;63.80;;;25.90;;
31966;SDS011;18496;52.042;6.812;2022-12-01T10:11:32;63.42;;;26.48;;
31966;SDS011;18496;52.042;6.812;2022-12-01T10:13:38;53.58;;;23.55;;
31966;SDS011;18496;52.042;6.812;2022-12-01T10:15:43;62.05;;;25.92;;
31966;SDS011;18496;52.042;6.812;2022-12-01T10:18:20;66.57;;;28.55;;
31966;SDS011;18496;52.042;6.812;2022-12-01T10:20:49;70.13;;;27.33;;
31966;SDS011;18496;52.042;6.812;2022-12-01T10:25:24;59.22;;;25.35;;
31966;SDS011;18496;52.042;6.812;2022-12-01T10:29:43;63.83;;;24.25;;
31966;SDS011;18496;52.042;6.812;2022-12-01T10:32:02;69.25;;;26.08;;
31966;SDS011;18496;52.042;6.812;2022-12-01T10:34:19;84.75;;;31.23;;
31966;SDS011;18496;52.042;6.812;2022-12-01T10:36:50;71.28;;;27.10;;
31966;SDS011;18496;52.042;6.812;2022-12-01T10:38:53;127.82;;;54.78;;
31966;SDS011;18496;52.042;6.812;2022-12-01T10:40:58;66.72;;;28.92;;
31966;SDS011;18496;52.042;6.812;2022-12-01T10:43:03;63.53;;;27.25;;
31966;SDS011;18496;52.042;6.812;2022-12-01T10:45:29;59.55;;;24.05;;
31966;SDS011;18496;52.042;6.812;2022-12-01T10:47:33;56.83;;;24.90;;
31966;SDS011;18496;52.042;6.812;2022-12-01T10:49:38;59.22;;;25.30;;
31966;SDS011;18496;52.042;6.812;2022-12-01T10:53:49;61.35;;;26.40;;
31966;SDS011;18496;52.042;6.812;2022-12-01T10:58:15;72.05;;;26.55;;
31966;SDS011;18496;52.042;6.812;2022-12-01T11:00:25;71.20;;;26.10;;
31966;SDS011;18496;52.042;6.812;2022-12-01T11:02:30;55.03;;;25.25;;
31966;SDS011;18496;52.042;6.812;2022-12-01T11:04:39;60.90;;;24.13;;
31966;SDS011;18496;52.042;6.812;2022-12-01T11:06:49;58.88;;;24.95;;
31966;SDS011;18496;52.042;6.812;2022-12-01T11:09:03;57.15;;;24.70;;
31966;SDS011;18496;52.042;6.812;2022-12-01T11:13:34;61.50;;;25.25;;
31966;SDS011;18496;52.042;6.812;2022-12-01T11:15:39;57.10;;;23.27;;
31966;SDS011;18496;52.042;6.812;2022-12-01T11:17:58;57.70;;;25.00;;
31966;SDS011;18496;52.042;6.812;2022-12-01T11:22:40;71.10;;;29.85;;
31966;SDS011;18496;52.042;6.812;2022-12-01T11:24:54;58.17;;;24.35;;
31966;SDS011;18496;52.042;6.812;2022-12-01T11:27:00;70.78;;;27.60;;
31966;SDS011;18496;52.042;6.812;2022-12-01T11:29:26;60.70;;;26.55;;
31966;SDS011;18496;52.042;6.812;2022-12-01T11:31:42;85.40;;;33.10;;
31966;SDS011;18496;52.042;6.812;2022-12-01T11:33:50;61.20;;;26.52;;
31966;SDS011;18496;52.042;6.812;2022-12-01T11:35:57;59.42;;;25.40;;
31966;SDS011;18496;52.042;6.812;2022-12-01T11:38:01;64.93;;;24.00;;
31966;SDS011;18496;52.042;6.812;2022-12-01T11:40:28;60.22;;;24.73;;
31966;SDS011;18496;52.042;6.812;2022-12-01T11:42:35;63.88;;;23.65;;
31966;SDS011;18496;52.042;6.812;2022-12-01T11:44:49;58.17;;;22.65;;
31966;SDS011;18496;52.042;6.812;2022-12-01T11:46:56;58.33;;;22.77;;
31966;SDS011;18496;52.042;6.812;2022-12-01T11:49:17;50.42;;;22.48;;
31966;SDS011;18496;52.042;6.812;2022-12-01T11:51:30;49.97;;;21.77;;
31966;SDS011;18496;52.042;6.812;2022-12-01T11:53:39;49.80;;;21.73;;
31966;SDS011;18496;52.042;6.812;2022-12-01T11:55:44;52.90;;;21.80;;
31966;SDS011;18496;52.042;6.812;2022-12-01T11:57:49;51.38;;;20.20;;
31966;SDS011;18496;52.042;6.812;2022-12-01T11:59:55;47.55;;;20.70;;
31966;SDS011;18496;52.042;6.812;2022-12-01T12:06:34;51.15;;;20.58;;
31966;SDS011;18496;52.042;6.812;2022-12-01T12:13:32;55.80;;;23.40;;
31966;SDS011;18496;52.042;6.812;2022-12-01T12:20:26;48.80;;;21.15;;
31966;SDS011;18496;52.042;6.812;2022-12-01T12:30:17;55.80;;;22.67;;
31966;SDS011;18496;52.042;6.812;2022-12-01T12:32:52;57.20;;;22.10;;
31966;SDS011;18496;52.042;6.812;2022-12-01T12:35:24;52.60;;;21.55;;
31966;SDS011;18496;52.042;6.812;2022-12-01T12:40:44;66.53;;;23.65;;
31966;SDS011;18496;52.042;6.812;2022-12-01T12:45:42;60.85;;;24.35;;
31966;SDS011;18496;52.042;6.812;2022-12-01T12:52:18;55.40;;;24.83;;
31966;SDS011;18496;52.042;6.812;2022-12-01T12:56:51;66.13;;;25.42;;
31966;SDS011;18496;52.042;6.812;2022-12-01T12:59:24;62.90;;;24.85;;
31966;SDS011;18496;52.042;6.812;2022-12-01T13:01:43;71.75;;;27.02;;
31966;SDS011;18496;52.042;6.812;2022-12-01T13:04:15;64.97;;;25.02;;
31966;SDS011;18496;52.042;6.812;2022-12-01T13:06:30;65.82;;;24.30;;
31966;SDS011;18496;52.042;6.812;2022-12-01T13:09:02;63.92;;;24.15;;
31966;SDS011;18496;52.042;6.812;2022-12-01T13:11:17;68.55;;;25.63;;
31966;SDS011;18496;52.042;6.812;2022-12-01T13:13:28;63.85;;;24.67;;
31966;SDS011;18496;52.042;6.812;2022-12-01T13:15:46;62.58;;;24.25;;
31966;SDS011;18496;52.042;6.812;2022-12-01T13:17:55;72.18;;;26.15;;
31966;SDS011;18496;52.042;6.812;2022-12-01T13:20:15;67.20;;;24.58;;
31966;SDS011;18496;52.042;6.812;2022-12-01T13:22:22;73.72;;;26.02;;
31966;SDS011;18496;52.042;6.812;2022-12-01T13:24:31;66.93;;;24.10;;
31966;SDS011;18496;52.042;6.812;2022-12-01T13:26:35;76.88;;;25.63;;
31966;SDS011;18496;52.042;6.812;2022-12-01T13:28:45;64.20;;;26.65;;
31966;SDS011;18496;52.042;6.812;2022-12-01T13:30:56;68.80;;;28.73;;
31966;SDS011;18496;52.042;6.812;2022-12-01T13:33:12;76.53;;;30.00;;
31966;SDS011;18496;52.042;6.812;2022-12-01T13:37:38;75.30;;;30.48;;
31966;SDS011;18496;52.042;6.812;2022-12-01T13:39:42;67.00;;;28.55;;
31966;SDS011;18496;52.042;6.812;2022-12-01T13:44:29;71.70;;;30.17;;
31966;SDS011;18496;52.042;6.812;2022-12-01T13:48:50;75.45;;;29.15;;
31966;SDS011;18496;52.042;6.812;2022-12-01T13:50:57;74.18;;;29.98;;
31966;SDS011;18496;52.042;6.812;2022-12-01T13:55:24;83.88;;;31.67;;
31966;SDS011;18496;52.042;6.812;2022-12-01T13:57:31;84.25;;;32.17;;
31966;SDS011;18496;52.042;6.812;2022-12-01T14:02:06;81.15;;;32.70;;
31966;SDS011;18496;52.042;6.812;2022-12-01T14:04:22;83.07;;;33.60;;